Terminal Aerodrome Forecast
Issued by NWS

Home | Current Version | Previous Version | Text Only | Print | Product List | Glossary On
Versions: 1 2 3 4 5 6 7 8 9 10 11 12 13 14 15
000
FTUS46 KMTR 042341
TAFOAK
TAF
KOAK 042341Z 0500/0606 28013KT P6SM SCT020 BKN150
     FM050400 26012KT P6SM BKN018 OVC150
     FM050800 24008KT P6SM BKN015
     FM051600 27008KT P6SM SCT015 BKN025
     FM052100 27013KT P6SM VCSH SCT035 BKN100=

USA.gov is the U.S. government's official web portal to all federal, state and local government web resources and services.